»·PEaware :: ASA182 KSAN-KLAS

ASA182 :: KSAN-KLAS

FLIGHT INFORMATION

Flight Status: Arrived
Operator:
Alaska Airlines
More flights by this operator :: More flights under this callsign
Pilot: Sean T. (30125)
Aircraft: AIRBUS A319
(A319)
More flights by this aircraft type
Origin: KSAN San Diego Intl-Lindbergh
United States
Destination: KLAS McCarran Intl
United States
More flights between these airports :: More routes between these airports
Route: +PADRZ2 CHKNN SEBBY YELAH MISEN KEPEC6
File this flight plan on PilotEdge
Remarks:
Altitude:
(Current/Filed)
32,000ft
Speed:
(Current/Filed)
290kts
Departed: 02-Aug-20 12:22 PM
Arrived: 02-Aug-20 01:15 PM
Distance/Time
Traveled:
225nm/0:53
Distance/Time
To Go:
Arrived

Flight Plot

Page will automatically refresh every two minutes.

Flight plan parsing failed; only flown route is shown


Map Options




Map Legend


Flown Route
Filed Route
Departure Airport
Arrival Airport
Navaid (VOR, NDB)
Fix

Horizontal Profiles

Position Reports

Time Latitude Longitude Heading Altitude Ground
Speed
02-Aug-20 11:44 32.733188 -117.196850 134 19ft 0kts
02-Aug-20 11:45 32.733188 -117.196850 134 19ft 0kts
02-Aug-20 11:46 32.733188 -117.196850 134 19ft 0kts
02-Aug-20 11:47 32.733188 -117.196850 134 19ft 0kts
02-Aug-20 11:48 32.733188 -117.196850 134 19ft 0kts
02-Aug-20 11:49 32.733188 -117.196850 134 19ft 0kts
02-Aug-20 11:50 32.733188 -117.196850 134 19ft 0kts
02-Aug-20 11:51 32.733188 -117.196850 134 19ft 0kts
02-Aug-20 11:52 32.733188 -117.196850 134 19ft 0kts
02-Aug-20 11:53 32.733188 -117.196850 134 19ft 0kts
02-Aug-20 11:54 32.733188 -117.196850 134 19ft 0kts
02-Aug-20 11:55 32.733188 -117.196850 134 19ft 0kts
02-Aug-20 11:56 32.733188 -117.196850 134 19ft 0kts
02-Aug-20 11:57 32.733188 -117.196850 134 19ft 0kts
02-Aug-20 11:58 32.733188 -117.196850 134 19ft 0kts
02-Aug-20 11:59 32.733188 -117.196850 134 19ft 0kts
02-Aug-20 12:00 32.733188 -117.196850 134 19ft 0kts
02-Aug-20 12:01 32.733188 -117.196850 134 19ft 0kts
02-Aug-20 12:07 32.733188 -117.196850 134 19ft 0kts
02-Aug-20 12:08 32.733188 -117.196850 134 19ft 0kts
02-Aug-20 12:09 32.733188 -117.196850 134 19ft 0kts
02-Aug-20 12:10 32.733188 -117.196850 134 19ft 0kts
02-Aug-20 12:11 32.733188 -117.196850 134 19ft 0kts
02-Aug-20 12:12 32.733188 -117.196850 134 19ft 0kts
02-Aug-20 12:13 32.733378 -117.197282 75 19ft 1kts
02-Aug-20 12:14 32.733330 -117.197433 52 19ft 0kts
02-Aug-20 12:15 32.733347 -117.197412 4 19ft 0kts
02-Aug-20 12:16 32.733688 -117.197311 41 19ft 3kts
02-Aug-20 12:17 32.733532 -117.193845 106 22ft 13kts
02-Aug-20 12:18 32.732218 -117.188403 106 20ft 19kts
02-Aug-20 12:19 32.730582 -117.181665 106 19ft 22kts
02-Aug-20 12:20 32.729748 -117.176095 68 25ft 17kts
02-Aug-20 12:21 32.731449 -117.181109 286 20ft 97kts
02-Aug-20 12:22 32.749420 -117.230026 307 2354ft 178kts
02-Aug-20 12:23 32.782439 -117.287741 302 4785ft 251kts
02-Aug-20 12:24 32.826672 -117.359609 305 6785ft 275kts
02-Aug-20 12:25 32.873446 -117.432094 305 9081ft 279kts
02-Aug-20 12:26 32.922603 -117.508576 306 10807ft 324kts
02-Aug-20 12:27 32.984043 -117.604207 306 12988ft 382kts
02-Aug-20 12:28 33.047520 -117.703296 306 16807ft 377kts
02-Aug-20 12:29 33.120630 -117.786866 317 20790ft 353kts
02-Aug-20 12:30 33.194052 -117.861341 317 23028ft 364kts
02-Aug-20 12:31 33.280478 -117.945647 318 23049ft 434kts
02-Aug-20 12:32 33.377687 -118.040535 319 24684ft 452kts
02-Aug-20 12:33 33.472400 -118.133491 319 27668ft 430kts
02-Aug-20 12:34 33.562240 -118.219537 324 30626ft 399kts
02-Aug-20 12:35 33.658021 -118.280456 339 32032ft 404kts
02-Aug-20 12:36 33.772235 -118.274986 24 32039ft 445kts
02-Aug-20 12:37 33.859144 -118.169530 55 32037ft 476kts
02-Aug-20 12:38 33.933667 -118.041199 54 32029ft 476kts
02-Aug-20 12:39 34.009761 -117.912265 54 32026ft 477kts
02-Aug-20 12:40 34.086498 -117.782424 52 32036ft 477kts
02-Aug-20 12:41 34.169936 -117.659342 49 32043ft 477kts
02-Aug-20 12:42 34.254635 -117.535667 50 32050ft 477kts
02-Aug-20 12:43 34.338688 -117.412120 50 32065ft 476kts
02-Aug-20 12:44 34.422364 -117.288419 50 32084ft 475kts
02-Aug-20 12:45 34.505869 -117.164509 50 32086ft 475kts
02-Aug-20 12:46 34.589360 -117.040394 50 32089ft 475kts
02-Aug-20 12:47 34.672465 -116.916494 49 31022ft 466kts
02-Aug-20 12:48 34.753805 -116.794995 48 28873ft 468kts
02-Aug-20 12:49 34.837037 -116.672139 45 26913ft 474kts
02-Aug-20 12:50 34.934603 -116.565822 36 25446ft 478kts
02-Aug-20 12:51 35.040220 -116.464014 36 24538ft 485kts
02-Aug-20 12:53 35.141880 -116.354692 43 23663ft 488kts
02-Aug-20 12:54 35.236381 -116.235694 45 23419ft 489kts
02-Aug-20 12:55 35.330749 -116.116822 45 21886ft 480kts
02-Aug-20 12:56 35.421947 -116.001753 45 19305ft 464kts
02-Aug-20 12:57 35.509794 -115.890545 45 16477ft 446kts
02-Aug-20 12:58 35.588517 -115.790596 45 13894ft 366kts
02-Aug-20 12:59 35.655058 -115.705868 45 13032ft 318kts
02-Aug-20 13:00 35.716739 -115.627104 45 13030ft 320kts
02-Aug-20 13:01 35.789513 -115.572127 1 13032ft 318kts
02-Aug-20 13:02 35.877612 -115.568439 1 13029ft 317kts
02-Aug-20 13:03 35.964603 -115.556883 31 13011ft 319kts
02-Aug-20 13:04 36.004090 -115.461390 69 12109ft 314kts
02-Aug-20 13:05 36.030213 -115.361468 91 11003ft 284kts
02-Aug-20 13:06 36.023129 -115.263781 97 9795ft 285kts
02-Aug-20 13:07 36.016279 -115.168922 96 9016ft 277kts
02-Aug-20 13:08 36.009885 -115.073972 96 7383ft 269kts
02-Aug-20 13:09 36.004559 -114.983228 94 5737ft 265kts
02-Aug-20 13:10 36.052089 -114.928517 350 4086ft 251kts
02-Aug-20 13:10 36.076080 -114.968836 251 3714ft 166kts
02-Aug-20 13:12 36.074578 -115.030653 262 3413ft 141kts
02-Aug-20 13:13 36.073653 -115.079516 262 2817ft 139kts
02-Aug-20 13:13 36.073694 -115.120467 264 2173ft 144kts
02-Aug-20 13:14 36.074377 -115.149812 301 2119ft 26kts
02-Aug-20 13:15 36.074746 -115.150596 302 2121ft 0kts
02-Aug-20 13:16 36.074753 -115.150609 302 2121ft 0kts
02-Aug-20 13:17 36.075944 -115.151763 334 2124ft 13kts
02-Aug-20 13:18 36.078817 -115.151752 87 2118ft 22kts
02-Aug-20 13:19 36.079916 -115.147062 64 2097ft 0kts

Navigation Log

Ident Type
Flight plan parsing failed, navigation log unavailable